Time;durP1;ratioP1;P1;durP2;ratioP2;P2;SDS_P1;SDS_P2;PMS_P1;PMS_P2;Temp;Humidity;BMP_temperature;BMP_pressure;BME280_temperature;BME280_humidity;BME280_pressure;Samples;Min_cycle;Max_cycle;Signal;HPM_P1;HPM_P2
2023/12/31 00:00:34;;;;;;;;;;;;;;;13.55;53.32;99520.72;4946810;28;9365;-81
2023/12/31 00:03:01;;;;;;;;;;;;;;;13.55;52.75;99521.56;4946491;28;7198;-80
2023/12/31 00:05:27;;;;;;;;;;;;;;;13.56;52.73;99512.16;4949826;28;6853;-80
2023/12/31 00:07:52;;;;;;;;;;;;;;;13.57;52.79;99516.44;4931882;28;7042;-79
2023/12/31 00:10:18;;;;;;;;;;;;;;;13.57;52.09;99499.31;4926672;28;8412;-80
2023/12/31 00:12:44;;;;;;;;;;;;;;;13.58;52.99;99500.16;4948556;28;7175;-80
2023/12/31 00:15:10;;;;;;;;;;;;;;;13.57;52.30;99498.44;4944663;28;6800;-81
2023/12/31 00:17:36;;;;;;;;;;;;;;;13.59;51.99;99504.47;4932408;28;7067;-80
2023/12/31 00:20:03;;;;;;;;;;;;;;;13.63;52.63;99493.41;4947898;28;8495;-80
2023/12/31 00:22:29;;;;;;;;;;;;;;;13.67;51.96;99473.75;4944646;28;7370;-80
2023/12/31 00:24:55;;;;;;;;;;;;;;;13.74;51.44;99481.63;4932308;28;6999;-81
2023/12/31 00:27:21;;;;;;;;;;;;;;;13.80;51.50;99469.69;4950125;28;6832;-81
2023/12/31 00:29:47;;;;;;;;;;;;;;;13.86;51.13;99465.56;4942740;28;6856;-81
2023/12/31 00:32:15;;;;;;;;;;;;;;;13.93;50.71;99460.50;4933127;28;7292;-81
2023/12/31 00:34:41;;;;;;;;;;;;;;;13.95;50.97;99459.72;4947870;28;6998;-80
2023/12/31 00:37:06;;;;;;;;;;;;;;;13.97;50.38;99465.75;4948321;28;6996;-80
2023/12/31 00:39:32;;;;;;;;;;;;;;;13.99;50.47;99456.34;4947719;28;7088;-80
2023/12/31 00:41:58;;;;;;;;;;;;;;;14.00;50.71;99447.81;4924074;28;8028;-79
2023/12/31 00:44:23;;;;;;;;;;;;;;;14.03;50.08;99434.97;4952614;28;7319;-81
2023/12/31 00:46:50;;;;;;;;;;;;;;;14.01;50.12;99421.19;4952206;28;6776;-80
2023/12/31 00:49:16;;;;;;;;;;;;;;;13.99;49.79;99430.56;4952048;28;6986;-80
2023/12/31 00:51:43;;;;;;;;;;;;;;;13.98;49.57;99420.25;4952128;28;6965;-80
2023/12/31 00:54:09;;;;;;;;;;;;;;;13.94;50.09;99421.91;4946194;28;6990;-80
2023/12/31 00:56:34;;;;;;;;;;;;;;;13.88;49.45;99412.38;4952933;28;7898;-80
2023/12/31 00:59:02;;;;;;;;;;;;;;;13.84;49.51;99409.72;4951967;28;6788;-80
2023/12/31 01:01:28;;;;;;;;;;;;;;;13.78;49.18;99400.16;4946220;28;6803;-81
2023/12/31 01:03:54;;;;;;;;;;;;;;;13.73;50.01;99392.34;4953036;28;6915;-81
2023/12/31 01:06:20;;;;;;;;;;;;;;;13.70;49.67;99392.25;4955753;28;7158;-76
2023/12/31 01:08:45;;;;;;;;;;;;;;;13.69;49.32;99384.53;4965178;28;7008;-76
2023/12/31 01:11:11;;;;;;;;;;;;;;;13.70;49.77;99375.97;4968906;28;7220;-76
2023/12/31 01:13:37;;;;;;;;;;;;;;;13.67;49.74;99366.47;4965874;28;6938;-78
2023/12/31 01:16:04;;;;;;;;;;;;;;;13.65;49.96;99362.13;4964397;28;6990;-77
2023/12/31 01:18:30;;;;;;;;;;;;;;;13.63;49.87;99351.81;4970157;28;6916;-76
2023/12/31 01:20:56;;;;;;;;;;;;;;;13.64;49.76;99350.97;4976752;28;7139;-77
2023/12/31 01:23:22;;;;;;;;;;;;;;;13.63;49.73;99349.25;4970487;28;8445;-77
2023/12/31 01:25:47;;;;;;;;;;;;;;;13.66;49.85;99335.53;4967449;28;6994;-77
2023/12/31 01:28:13;;;;;;;;;;;;;;;13.66;49.35;99326.13;4965022;28;6832;-77
2023/12/31 01:30:40;;;;;;;;;;;;;;;13.65;49.00;99315.78;4959703;28;6780;-78
2023/12/31 01:33:05;;;;;;;;;;;;;;;13.65;49.34;99311.50;4975328;28;6784;-78
2023/12/31 01:35:31;;;;;;;;;;;;;;;13.63;49.19;99304.59;4957729;28;6939;-77
2023/12/31 01:37:56;;;;;;;;;;;;;;;13.62;49.02;99306.31;4960059;28;6776;-78
2023/12/31 01:40:22;;;;;;;;;;;;;;;13.58;49.74;99296.78;4959374;28;8458;-76
2023/12/31 01:42:48;;;;;;;;;;;;;;;13.54;49.38;99289.84;4965591;28;6800;-77
2023/12/31 01:45:14;;;;;;;;;;;;;;;13.53;49.36;99291.56;4938739;28;7213;-77
2023/12/31 01:47:41;;;;;;;;;;;;;;;13.52;49.45;99282.09;4966251;28;7041;-77
2023/12/31 01:50:07;;;;;;;;;;;;;;;13.50;49.50;99277.75;4964393;28;7263;-76
2023/12/31 01:52:34;;;;;;;;;;;;;;;13.46;49.33;99270.00;4950035;28;8548;-77
2023/12/31 01:55:04;;;;;;;;;;;;;;;13.41;49.88;99271.56;4967892;28;6780;-77
2023/12/31 01:57:31;;;;;;;;;;;;;;;13.38;49.63;99276.66;4967554;28;8393;-77
2023/12/31 02:00:03;;;;;;;;;;;;;;;13.33;49.25;99265.44;4958291;28;7265;-78
2023/12/31 02:02:29;;;;;;;;;;;;;;;13.30;50.25;99266.25;4955598;28;7336;-76
2023/12/31 02:04:56;;;;;;;;;;;;;;;13.28;50.22;99269.63;4956232;28;6815;-77
2023/12/31 02:07:22;;;;;;;;;;;;;;;13.28;49.91;99272.19;4969807;28;7278;-77
2023/12/31 02:09:49;;;;;;;;;;;;;;;13.26;50.58;99277.28;4964880;28;6970;-77
2023/12/31 02:12:16;;;;;;;;;;;;;;;13.25;49.94;99275.56;4972079;28;6796;-77
2023/12/31 02:14:41;;;;;;;;;;;;;;;13.24;50.73;99275.56;4960986;28;7171;-78
2023/12/31 02:17:07;;;;;;;;;;;;;;;13.22;50.43;99274.63;4961374;28;7108;-79
2023/12/31 02:19:33;;;;;;;;;;;;;;;13.19;50.13;99276.31;4956544;28;6765;-79
2023/12/31 02:21:59;;;;;;;;;;;;;;;13.19;50.77;99267.75;4949529;28;6943;-79
2023/12/31 02:24:34;;;;;;;;;;;;;;;13.17;50.23;99254.84;4949132;28;6858;-80
2023/12/31 02:27:00;;;;;;;;;;;;;;;13.15;50.26;99253.06;4939563;28;7340;-79
2023/12/31 02:29:25;;;;;;;;;;;;;;;13.13;50.35;99253.03;4940993;28;6953;-79
2023/12/31 02:31:51;;;;;;;;;;;;;;;13.11;50.90;99241.00;4949193;28;7167;-79
2023/12/31 02:34:16;;;;;;;;;;;;;;;13.09;50.62;99237.53;4934063;28;7433;-79
2023/12/31 02:36:43;;;;;;;;;;;;;;;13.09;51.07;99229.81;4951896;28;7138;-79
2023/12/31 02:39:09;;;;;;;;;;;;;;;13.11;51.40;99225.56;4950252;28;7228;-79
2023/12/31 02:41:34;;;;;;;;;;;;;;;13.11;51.18;99221.28;4947505;28;6844;-79
2023/12/31 02:44:01;;;;;;;;;;;;;;;13.12;51.14;99212.72;4944273;28;6944;-79
2023/12/31 02:46:26;;;;;;;;;;;;;;;13.16;51.57;99209.38;4952542;28;7007;-79
2023/12/31 02:48:52;;;;;;;;;;;;;;;13.16;51.90;99201.66;4935531;28;7414;-79
2023/12/31 02:51:18;;;;;;;;;;;;;;;13.17;50.83;99195.66;4933951;28;6932;-79
2023/12/31 02:53:43;;;;;;;;;;;;;;;13.19;50.66;99194.00;4956145;28;7016;-79
2023/12/31 02:56:09;;;;;;;;;;;;;;;13.19;51.15;99188.00;4944382;28;7192;-79
2023/12/31 02:58:35;;;;;;;;;;;;;;;13.19;51.17;99183.69;4944042;28;6768;-79
2023/12/31 03:01:00;;;;;;;;;;;;;;;13.20;51.61;99164.84;4950068;28;6772;-78
2023/12/31 03:03:26;;;;;;;;;;;;;;;13.18;51.21;99166.53;4938532;28;6950;-79
2023/12/31 03:05:51;;;;;;;;;;;;;;;13.18;51.70;99161.38;4954884;28;6792;-79
2023/12/31 03:08:17;;;;;;;;;;;;;;;13.20;51.75;99153.72;4940437;28;6948;-79
2023/12/31 03:10:43;;;;;;;;;;;;;;;13.20;51.85;99149.41;4950435;28;6896;-79
2023/12/31 03:13:08;;;;;;;;;;;;;;;13.22;51.92;99141.72;4952415;28;6777;-79
2023/12/31 03:15:34;;;;;;;;;;;;;;;13.23;51.26;99137.44;4951745;28;6884;-79
2023/12/31 03:18:00;;;;;;;;;;;;;;;13.26;51.74;99132.34;4945387;28;7314;-79
2023/12/31 03:20:25;;;;;;;;;;;;;;;13.28;51.66;99126.41;4932880;28;6962;-78
2023/12/31 03:22:51;;;;;;;;;;;;;;;13.32;51.20;99122.16;4951200;28;6769;-79
2023/12/31 03:25:16;;;;;;;;;;;;;;;13.34;52.01;99110.19;4948687;28;6984;-79
2023/12/31 03:27:45;;;;;;;;;;;;;;;13.36;51.98;99111.06;4951438;28;6967;-81
2023/12/31 03:30:11;;;;;;;;;;;;;;;13.38;51.93;99105.97;4953344;28;6800;-80
2023/12/31 03:32:36;;;;;;;;;;;;;;;13.34;51.28;99087.88;4956534;28;6991;-81
2023/12/31 03:35:02;;;;;;;;;;;;;;;13.34;51.62;99093.03;4949337;28;7231;-81
2023/12/31 03:37:29;;;;;;;;;;;;;;;13.32;51.75;99078.41;4947959;28;6984;-80
2023/12/31 03:39:54;;;;;;;;;;;;;;;13.31;51.12;99084.38;4945710;28;8547;-81
2023/12/31 03:42:20;;;;;;;;;;;;;;;13.27;52.27;99080.06;4956026;28;7160;-81
2023/12/31 03:44:47;;;;;;;;;;;;;;;13.23;51.30;99080.81;4951833;28;6971;-79
2023/12/31 03:47:12;;;;;;;;;;;;;;;13.20;51.59;99071.38;4937550;28;7271;-81
2023/12/31 03:49:38;;;;;;;;;;;;;;;13.15;51.33;99053.28;4930696;28;6976;-80
2023/12/31 03:52:04;;;;;;;;;;;;;;;13.10;51.49;99054.91;4929167;28;7157;-80
2023/12/31 03:54:30;;;;;;;;;;;;;;;13.08;52.34;99051.47;4957275;28;6806;-81
2023/12/31 03:56:55;;;;;;;;;;;;;;;13.03;51.80;99047.94;4950921;28;6947;-79
2023/12/31 03:59:21;;;;;;;;;;;;;;;13.00;52.50;99048.78;4941964;28;6838;-80
2023/12/31 04:01:47;;;;;;;;;;;;;;;12.96;51.95;99044.41;4948109;28;6775;-80
2023/12/31 04:04:16;;;;;;;;;;;;;;;12.95;51.63;99046.97;4949272;28;6780;-79
2023/12/31 04:06:45;;;;;;;;;;;;;;;12.91;52.56;99028.03;4939010;28;8411;-80
2023/12/31 04:09:11;;;;;;;;;;;;;;;12.88;52.57;99023.72;4949251;28;7199;-81
2023/12/31 04:11:37;;;;;;;;;;;;;;;12.87;51.95;99026.25;4946432;28;7223;-80
2023/12/31 04:14:03;;;;;;;;;;;;;;;12.84;52.73;99013.34;4944057;28;6989;-80
2023/12/31 04:16:28;;;;;;;;;;;;;;;12.85;52.89;99005.66;4934202;28;7247;-79
2023/12/31 04:18:54;;;;;;;;;;;;;;;12.86;53.09;98999.69;4948990;28;7308;-80
2023/12/31 04:21:20;;;;;;;;;;;;;;;12.88;52.93;98995.44;4950756;28;6795;-81
2023/12/31 04:23:45;;;;;;;;;;;;;;;12.92;52.97;98992.03;4952809;28;6991;-80
2023/12/31 04:26:11;;;;;;;;;;;;;;;12.96;53.04;98979.25;4958553;28;7035;-80
2023/12/31 04:28:36;;;;;;;;;;;;;;;12.99;53.60;98980.19;4933702;28;6768;-81
2023/12/31 04:31:03;;;;;;;;;;;;;;;13.04;53.80;98975.09;4948339;28;6934;-79
2023/12/31 04:33:29;;;;;;;;;;;;;;;13.07;53.08;98975.13;4951737;28;6983;-81
2023/12/31 04:35:54;;;;;;;;;;;;;;;13.09;53.51;98960.59;4953416;28;7185;-79
2023/12/31 04:38:20;;;;;;;;;;;;;;;13.12;52.75;98958.03;4937941;28;6856;-79
2023/12/31 04:40:46;;;;;;;;;;;;;;;13.14;53.06;98958.09;4954583;28;8394;-79
2023/12/31 04:43:11;;;;;;;;;;;;;;;13.16;52.92;98952.13;4946196;28;8503;-79
2023/12/31 04:45:37;;;;;;;;;;;;;;;13.17;52.96;98942.69;4944308;28;7171;-79
2023/12/31 04:48:02;;;;;;;;;;;;;;;13.17;52.64;98937.53;4957591;28;7162;-79
2023/12/31 04:50:28;;;;;;;;;;;;;;;13.15;53.08;98932.38;4950678;28;6954;-79
2023/12/31 04:52:55;;;;;;;;;;;;;;;13.13;52.60;98922.91;4954694;28;6861;-79
2023/12/31 04:55:21;;;;;;;;;;;;;;;13.11;52.79;98912.59;4950645;28;7141;-79
2023/12/31 04:57:47;;;;;;;;;;;;;;;13.15;52.94;98910.94;4951097;28;7021;-79
2023/12/31 05:00:14;;;;;;;;;;;;;;;13.25;53.84;98910.22;4937405;28;7247;-79
2023/12/31 05:02:39;;;;;;;;;;;;;;;13.36;53.75;98907.78;4954738;28;7231;-79
2023/12/31 05:05:05;;;;;;;;;;;;;;;13.44;53.35;98901.06;4959341;28;6875;-80
2023/12/31 05:07:31;;;;;;;;;;;;;;;13.53;52.55;98900.28;4953095;28;7224;-79
2023/12/31 05:09:57;;;;;;;;;;;;;;;13.58;52.31;98882.34;4958884;28;7115;-79
2023/12/31 05:12:23;;;;;;;;;;;;;;;13.63;52.25;98888.41;4946380;28;6964;-79
2023/12/31 05:14:48;;;;;;;;;;;;;;;13.65;51.75;98872.97;4944788;28;7043;-79
2023/12/31 05:17:14;;;;;;;;;;;;;;;13.66;52.14;98873.00;4952026;28;6772;-79
2023/12/31 05:19:41;;;;;;;;;;;;;;;13.66;52.14;98865.25;4953956;28;6810;-79
2023/12/31 05:22:06;;;;;;;;;;;;;;;13.68;52.19;98849.84;4950003;28;7811;-79
2023/12/31 05:24:32;;;;;;;;;;;;;;;13.69;51.63;98862.72;4936314;28;6954;-79
2023/12/31 05:26:58;;;;;;;;;;;;;;;13.72;51.91;98852.47;4947678;28;6844;-79
2023/12/31 05:29:23;;;;;;;;;;;;;;;13.74;52.00;98855.91;4919771;28;7041;-79
2023/12/31 05:31:49;;;;;;;;;;;;;;;13.75;51.85;98855.06;4951960;28;8212;-79
2023/12/31 05:34:15;;;;;;;;;;;;;;;13.78;51.13;98848.22;4955792;28;6791;-79
2023/12/31 05:36:40;;;;;;;;;;;;;;;13.85;51.91;98850.84;4947597;28;6956;-79
2023/12/31 05:39:06;;;;;;;;;;;;;;;13.93;51.66;98840.66;4951720;28;6831;-79
2023/12/31 05:41:32;;;;;;;;;;;;;;;14.00;51.30;98834.72;4947561;28;7130;-79
2023/12/31 05:43:57;;;;;;;;;;;;;;;14.07;51.46;98827.03;4919620;28;7203;-79
2023/12/31 05:46:23;;;;;;;;;;;;;;;14.15;51.14;98831.41;4934066;28;6963;-76
2023/12/31 05:48:49;;;;;;;;;;;;;;;14.25;51.15;98816.88;4971081;28;8772;-77
2023/12/31 05:51:14;;;;;;;;;;;;;;;14.32;50.78;98815.19;4964460;28;7278;-76
2023/12/31 05:53:40;;;;;;;;;;;;;;;14.39;50.51;98810.94;4969684;28;7199;-77
2023/12/31 05:56:06;;;;;;;;;;;;;;;14.46;50.99;98802.41;4950504;28;7308;-76
2023/12/31 05:58:31;;;;;;;;;;;;;;;14.53;50.52;98798.13;4969448;28;7484;-77
2023/12/31 06:00:58;;;;;;;;;;;;;;;14.58;49.87;98787.03;4965265;28;6940;-76
2023/12/31 06:03:24;;;;;;;;;;;;;;;14.64;50.23;98783.63;4968966;28;6981;-76
2023/12/31 06:05:49;;;;;;;;;;;;;;;14.67;49.70;98787.91;4931968;28;7203;-78
2023/12/31 06:08:15;;;;;;;;;;;;;;;14.74;50.20;98788.88;4955651;28;7162;-77
2023/12/31 06:10:41;;;;;;;;;;;;;;;14.77;49.85;98770.81;4962108;28;6804;-77
2023/12/31 06:13:07;;;;;;;;;;;;;;;14.79;49.32;98756.19;4964632;28;6764;-77
2023/12/31 06:15:32;;;;;;;;;;;;;;;14.82;49.15;98763.94;4965790;28;6949;-77
2023/12/31 06:17:59;;;;;;;;;;;;;;;14.86;48.99;98766.53;4967987;28;6764;-77
2023/12/31 06:20:24;;;;;;;;;;;;;;;14.89;49.65;98773.44;4953683;28;8459;-76
2023/12/31 06:22:50;;;;;;;;;;;;;;;14.90;49.21;98772.59;4963213;28;8875;-77
2023/12/31 06:25:15;;;;;;;;;;;;;;;14.91;49.36;98765.72;4950127;28;6947;-77
2023/12/31 06:27:41;;;;;;;;;;;;;;;14.91;48.95;98752.81;4967850;28;6768;-77
2023/12/31 06:30:07;;;;;;;;;;;;;;;14.91;48.72;98763.97;4958087;28;7073;-76
2023/12/31 06:32:33;;;;;;;;;;;;;;;14.92;49.37;98749.38;4943567;28;6992;-77
2023/12/31 06:34:59;;;;;;;;;;;;;;;14.94;48.63;98768.31;4964256;28;6780;-76
2023/12/31 06:37:25;;;;;;;;;;;;;;;14.92;48.54;98749.38;4967544;28;8358;-76
2023/12/31 06:39:51;;;;;;;;;;;;;;;14.90;49.06;98772.59;4966258;28;6812;-77
2023/12/31 06:42:17;;;;;;;;;;;;;;;14.87;49.32;98764.84;4962042;28;6974;-76
2023/12/31 06:44:42;;;;;;;;;;;;;;;14.82;49.53;98774.25;4961922;28;7232;-77
2023/12/31 06:47:08;;;;;;;;;;;;;;;14.82;49.06;98769.09;4927683;28;7209;-77
2023/12/31 06:49:34;;;;;;;;;;;;;;;14.81;49.12;98757.94;4959493;28;6912;-76
2023/12/31 06:52:00;;;;;;;;;;;;;;;14.84;48.99;98757.94;4949407;28;7061;-77
2023/12/31 06:54:27;;;;;;;;;;;;;;;14.85;49.33;98745.94;4950000;28;8492;-77
2023/12/31 06:56:53;;;;;;;;;;;;;;;14.86;48.82;98745.91;4955176;28;6792;-80
2023/12/31 06:59:19;;;;;;;;;;;;;;;14.88;48.85;98717.56;4947557;28;6996;-80
2023/12/31 07:01:44;;;;;;;;;;;;;;;14.88;48.69;98738.19;4950579;28;6860;-80
2023/12/31 07:04:10;;;;;;;;;;;;;;;14.89;48.69;98736.47;4931746;28;7217;-79
2023/12/31 07:06:37;;;;;;;;;;;;;;;14.90;48.96;98725.31;4951296;28;7073;-79
2023/12/31 07:09:02;;;;;;;;;;;;;;;14.89;48.74;98718.44;4927854;28;7100;-79
2023/12/31 07:11:28;;;;;;;;;;;;;;;14.90;48.82;98725.31;4919769;28;6943;-80
2023/12/31 07:13:54;;;;;;;;;;;;;;;14.90;48.83;98709.84;4934579;28;7155;-80
2023/12/31 07:16:19;;;;;;;;;;;;;;;14.91;48.63;98696.06;4951632;28;6863;-79
2023/12/31 07:18:45;;;;;;;;;;;;;;;14.92;49.07;98700.38;4944337;28;7462;-79
2023/12/31 07:21:10;;;;;;;;;;;;;;;14.92;48.90;98687.47;4948655;28;6950;-79
2023/12/31 07:23:36;;;;;;;;;;;;;;;14.92;48.40;98693.50;4954944;28;6843;-79
2023/12/31 07:26:04;;;;;;;;;;;;;;;14.92;48.82;98682.31;4952753;28;7012;-80
2023/12/31 07:28:29;;;;;;;;;;;;;;;14.90;48.84;98702.94;4947976;28;7039;-79
2023/12/31 07:30:55;;;;;;;;;;;;;;;14.89;49.15;98702.94;4945075;28;6780;-80
2023/12/31 07:33:21;;;;;;;;;;;;;;;14.86;49.14;98699.47;4935338;28;8037;-80
2023/12/31 07:35:46;;;;;;;;;;;;;;;14.85;48.94;98697.75;4922653;28;6979;-79
2023/12/31 07:38:13;;;;;;;;;;;;;;;14.83;48.77;98698.63;4954589;28;6764;-80
2023/12/31 07:40:38;;;;;;;;;;;;;;;14.82;49.06;98700.34;4929005;28;7924;-79
2023/12/31 07:43:04;;;;;;;;;;;;;;;14.82;49.52;98705.50;4922867;28;6938;-79
2023/12/31 07:45:30;;;;;;;;;;;;;;;14.82;49.23;98709.78;4946720;28;7191;-80
2023/12/31 07:47:56;;;;;;;;;;;;;;;14.77;49.57;98704.59;4956568;28;7959;-80
2023/12/31 07:50:22;;;;;;;;;;;;;;;14.77;49.29;98694.28;4956170;28;7222;-79
2023/12/31 07:52:47;;;;;;;;;;;;;;;14.75;48.82;98680.53;4956390;28;8003;-79
2023/12/31 07:55:13;;;;;;;;;;;;;;;14.74;49.04;98696.88;4951779;28;6828;-79
2023/12/31 07:57:39;;;;;;;;;;;;;;;14.73;48.88;98692.56;4955779;28;7046;-79
2023/12/31 08:00:07;;;;;;;;;;;;;;;14.72;49.47;98683.97;4950690;28;7171;-79
2023/12/31 08:02:32;;;;;;;;;;;;;;;14.74;49.17;98680.56;4951493;28;7022;-79
2023/12/31 08:04:58;;;;;;;;;;;;;;;14.74;49.01;98678.81;4957829;28;6840;-79
2023/12/31 08:07:24;;;;;;;;;;;;;;;14.77;48.75;98670.25;4953887;28;6953;-79
2023/12/31 08:09:49;;;;;;;;;;;;;;;14.78;49.18;98675.41;4956558;28;7191;-79
2023/12/31 08:12:15;;;;;;;;;;;;;;;14.79;49.22;98665.94;4937469;28;6749;-80
2023/12/31 08:14:40;;;;;;;;;;;;;;;14.80;49.03;98660.81;4947310;28;6936;-79
2023/12/31 08:17:07;;;;;;;;;;;;;;;14.84;48.57;98666.84;4946122;28;7021;-79
2023/12/31 08:19:33;;;;;;;;;;;;;;;14.86;48.49;98675.44;4952698;28;7185;-79
2023/12/31 08:21:58;;;;;;;;;;;;;;;14.86;48.42;98668.53;4951179;28;7028;-79
2023/12/31 08:24:24;;;;;;;;;;;;;;;14.89;48.57;98666.84;4951854;28;6959;-79
2023/12/31 08:26:51;;;;;;;;;;;;;;;14.92;48.96;98666.84;4955027;28;7191;-79
2023/12/31 08:29:16;;;;;;;;;;;;;;;14.98;48.67;98653.97;4956306;28;7208;-79
2023/12/31 08:31:49;;;;;;;;;;;;;;;15.04;48.75;98651.38;4949064;28;6915;-79
2023/12/31 08:34:15;;;;;;;;;;;;;;;15.11;48.31;98662.56;4954753;28;7272;-79
2023/12/31 08:36:40;;;;;;;;;;;;;;;15.19;48.11;98650.53;4952052;28;7342;-79
2023/12/31 08:39:06;;;;;;;;;;;;;;;15.26;48.19;98662.59;4920360;28;6967;-80
2023/12/31 08:41:32;;;;;;;;;;;;;;;15.29;48.15;98656.59;4951218;28;6764;-79
2023/12/31 08:43:58;;;;;;;;;;;;;;;15.31;47.74;98662.59;4950156;28;7251;-79
2023/12/31 08:46:23;;;;;;;;;;;;;;;15.32;47.99;98664.31;4953739;28;7361;-79
2023/12/31 08:48:49;;;;;;;;;;;;;;;15.32;47.76;98660.91;4956468;28;7018;-79
2023/12/31 08:51:15;;;;;;;;;;;;;;;15.26;47.43;98664.34;4950298;28;6760;-79
2023/12/31 08:53:41;;;;;;;;;;;;;;;15.13;48.37;98661.72;4960040;28;7145;-79
2023/12/31 08:56:06;;;;;;;;;;;;;;;14.96;48.59;98660.81;4952355;28;7001;-79
2023/12/31 08:58:32;;;;;;;;;;;;;;;14.76;49.01;98664.22;4956639;28;6776;-79
2023/12/31 09:00:57;;;;;;;;;;;;;;;14.56;49.97;98652.06;4951400;28;7866;-79
2023/12/31 09:03:24;;;;;;;;;;;;;;;14.39;50.58;98639.13;4956970;28;6936;-80
2023/12/31 09:05:49;;;;;;;;;;;;;;;14.30;51.12;98649.41;4951792;28;7205;-79
2023/12/31 09:08:15;;;;;;;;;;;;;;;14.25;51.14;98651.94;4948692;28;8497;-79
2023/12/31 09:10:41;;;;;;;;;;;;;;;14.27;51.43;98668.28;4951792;28;7172;-79
2023/12/31 09:13:07;;;;;;;;;;;;;;;14.32;50.99;98676.03;4937679;28;7515;-79
2023/12/31 09:15:34;;;;;;;;;;;;;;;14.39;51.16;98667.47;4953694;28;6760;-79
2023/12/31 09:18:00;;;;;;;;;;;;;;;14.49;51.44;98689.03;4973320;28;7213;-78
2023/12/31 09:20:25;;;;;;;;;;;;;;;14.56;50.77;98693.31;4965497;28;6937;-78
2023/12/31 09:22:53;;;;;;;;;;;;;;;14.62;51.07;98689.06;4950823;28;8401;-78
2023/12/31 09:25:20;;;;;;;;;;;;;;;14.67;50.15;98698.53;4969542;28;6832;-77
2023/12/31 09:27:45;;;;;;;;;;;;;;;14.71;49.65;98696.84;4978306;28;6932;-77
2023/12/31 09:30:11;;;;;;;;;;;;;;;14.74;49.57;98707.19;4979133;28;6959;-77
2023/12/31 09:32:37;;;;;;;;;;;;;;;14.76;49.67;98691.72;4960577;28;6978;-77
2023/12/31 09:35:04;;;;;;;;;;;;;;;14.77;48.82;98699.44;4981999;28;6995;-77
2023/12/31 09:37:29;;;;;;;;;;;;;;;14.79;48.17;98700.34;4976064;28;6941;-77
2023/12/31 09:39:55;;;;;;;;;;;;;;;14.80;47.97;98691.75;4966749;28;7391;-77
2023/12/31 09:42:38;;;;;;;;;;;;;;;14.82;48.29;98699.47;4978510;28;6944;-77
2023/12/31 09:45:08;;;;;;;;;;;;;;;14.84;47.30;98693.47;4978215;28;7025;-77
2023/12/31 09:47:34;;;;;;;;;;;;;;;14.85;47.68;98705.50;4970438;28;6963;-77
2023/12/31 09:50:01;;;;;;;;;;;;;;;14.86;46.98;98704.66;4958964;28;6992;-77
2023/12/31 09:52:30;;;;;;;;;;;;;;;14.89;47.39;98713.28;4980543;28;6962;-77
2023/12/31 09:54:58;;;;;;;;;;;;;;;14.89;46.88;98719.28;4979009;28;7228;-77
2023/12/31 09:57:26;;;;;;;;;;;;;;;14.89;47.10;98718.44;4978677;28;7248;-77
2023/12/31 09:59:54;;;;;;;;;;;;;;;14.88;46.71;98716.72;4977284;28;7248;-77
2023/12/31 10:02:22;;;;;;;;;;;;;;;14.86;46.82;98720.13;4973952;28;7226;-78
2023/12/31 10:04:50;;;;;;;;;;;;;;;14.87;47.08;98726.16;4974940;28;7303;-78
2023/12/31 10:07:16;;;;;;;;;;;;;;;14.86;47.09;98722.69;4978510;28;6772;-77
2023/12/31 10:09:42;;;;;;;;;;;;;;;14.86;46.91;98722.69;4975543;28;7434;-77
2023/12/31 10:12:08;;;;;;;;;;;;;;;14.84;46.84;98708.94;4976810;28;6956;-77
2023/12/31 10:14:34;;;;;;;;;;;;;;;14.81;46.36;98711.53;4982221;28;6756;-77
2023/12/31 10:16:59;;;;;;;;;;;;;;;14.74;46.85;98730.41;4986380;28;7009;-77
2023/12/31 10:19:25;;;;;;;;;;;;;;;14.65;47.06;98725.16;4967223;28;6984;-77
2023/12/31 10:21:51;;;;;;;;;;;;;;;14.59;47.90;98720.84;4976949;28;6954;-78
2023/12/31 10:24:27;;;;;;;;;;;;;;;14.52;47.05;98708.78;4978284;28;7016;-77
2023/12/31 10:27:00;;;;;;;;;;;;;;;14.39;48.22;98724.19;4964627;28;7217;-78
2023/12/31 10:29:26;;;;;;;;;;;;;;;14.30;48.82;98718.97;4981560;28;7340;-77
2023/12/31 10:31:52;;;;;;;;;;;;;;;14.29;48.38;98723.28;4964950;28;7255;-77
2023/12/31 10:34:18;;;;;;;;;;;;;;;14.29;48.38;98720.69;4979261;28;6800;-78
2023/12/31 10:36:47;;;;;;;;;;;;;;;14.32;48.11;98712.09;4962529;28;6804;-78
2023/12/31 10:39:27;;;;;;;;;;;;;;;14.30;48.80;98713.81;4959104;28;7164;-77
2023/12/31 10:41:59;;;;;;;;;;;;;;;14.24;49.14;98701.75;4975842;28;7226;-77
2023/12/31 10:44:26;;;;;;;;;;;;;;;14.23;48.39;98700.03;4980968;28;7443;-77
2023/12/31 10:46:56;;;;;;;;;;;;;;;14.26;49.25;98699.22;4976811;28;7178;-77
2023/12/31 10:49:23;;;;;;;;;;;;;;;14.29;48.42;98694.06;4963011;28;7150;-77
2023/12/31 10:51:53;;;;;;;;;;;;;;;14.33;48.67;98700.09;4959269;28;8373;-77
2023/12/31 10:54:45;;;;;;;;;;;;;;;14.36;49.15;98705.25;4960606;28;6955;-77
2023/12/31 10:57:12;;;;;;;;;;;;;;;14.37;48.48;98688.94;4977499;28;6976;-77
2023/12/31 10:59:41;;;;;;;;;;;;;;;14.38;48.21;98680.34;4979542;28;6979;-77
2023/12/31 11:02:15;;;;;;;;;;;;;;;14.39;48.07;98694.94;4941872;28;7626;-78
2023/12/31 11:04:46;;;;;;;;;;;;;;;14.38;48.55;98690.66;4981365;28;7113;-77
2023/12/31 11:07:19;;;;;;;;;;;;;;;14.38;48.50;98691.53;4981310;28;7196;-77
2023/12/31 11:09:49;;;;;;;;;;;;;;;14.40;48.06;98700.13;4978780;28;7931;-77
2023/12/31 11:12:16;;;;;;;;;;;;;;;14.40;48.29;98691.56;4973864;28;6956;-77
2023/12/31 11:14:53;;;;;;;;;;;;;;;14.42;48.07;98682.09;4975382;28;6970;-77
2023/12/31 11:17:52;;;;;;;;;;;;;;;14.40;48.78;98683.81;4975515;28;6900;-77
2023/12/31 11:20:47;;;;;;;;;;;;;;;14.41;48.46;98690.69;4979162;28;7217;-77
2023/12/31 11:23:54;;;;;;;;;;;;;;;14.41;47.78;98691.53;4981568;28;7300;-77
2023/12/31 11:26:19;;;;;;;;;;;;;;;14.41;48.00;98693.28;4977416;28;7016;-77
2023/12/31 11:28:49;;;;;;;;;;;;;;;14.41;47.86;98703.59;4981218;28;6920;-77
2023/12/31 11:31:15;;;;;;;;;;;;;;;14.38;47.64;98696.69;4975677;28;6980;-77
2023/12/31 11:33:40;;;;;;;;;;;;;;;14.37;47.85;98694.09;4979052;28;7322;-77
2023/12/31 11:36:13;;;;;;;;;;;;;;;14.37;48.34;98701.81;4978996;28;8458;-79
2023/12/31 11:38:56;;;;;;;;;;;;;;;14.38;47.83;98709.56;4980358;28;6944;-78
2023/12/31 11:41:24;;;;;;;;;;;;;;;14.37;48.24;98707.84;4963442;28;6835;-77
2023/12/31 11:43:51;;;;;;;;;;;;;;;14.39;48.32;98713.00;4978579;28;7162;-77
2023/12/31 11:46:38;;;;;;;;;;;;;;;14.44;48.46;98711.31;4958850;28;7271;-77
2023/12/31 11:49:05;;;;;;;;;;;;;;;14.48;48.07;98702.72;4982932;28;6963;-77
2023/12/31 11:51:52;;;;;;;;;;;;;;;14.45;48.29;98707.88;4980343;28;7198;-77
2023/12/31 11:54:21;;;;;;;;;;;;;;;14.32;48.52;98703.53;4949580;28;6963;-77
2023/12/31 11:56:46;;;;;;;;;;;;;;;14.10;49.33;98696.53;4976595;28;6843;-77
2023/12/31 11:59:12;;;;;;;;;;;;;;;13.96;50.01;98703.31;4983087;28;6776;-77
2023/12/31 12:01:41;;;;;;;;;;;;;;;13.94;50.13;98693.00;4960453;28;7275;-77
2023/12/31 12:04:06;;;;;;;;;;;;;;;14.02;50.09;98688.75;4972979;28;6844;-77
2023/12/31 12:06:32;;;;;;;;;;;;;;;14.15;50.31;98694.84;4975300;28;7269;-77
2023/12/31 12:08:59;;;;;;;;;;;;;;;14.23;50.57;98717.22;4975481;28;6749;-77
2023/12/31 12:11:26;;;;;;;;;;;;;;;14.22;49.82;98718.94;4978789;28;6777;-77
2023/12/31 12:13:52;;;;;;;;;;;;;;;14.18;49.78;98714.59;4972017;28;6962;-77
2023/12/31 12:16:18;;;;;;;;;;;;;;;14.08;49.98;98728.28;4968556;28;6909;-77
2023/12/31 12:18:44;;;;;;;;;;;;;;;13.87;49.65;98728.16;4955080;28;7388;-77
2023/12/31 12:21:09;;;;;;;;;;;;;;;13.63;50.52;98736.53;4978275;28;6756;-77
2023/12/31 12:23:35;;;;;;;;;;;;;;;13.35;50.58;98754.25;4978395;28;7026;-77
2023/12/31 12:26:03;;;;;;;;;;;;;;;13.10;51.63;98737.69;4982827;28;6752;-76
2023/12/31 12:28:30;;;;;;;;;;;;;;;12.83;52.35;98742.50;4963654;28;7091;-76
2023/12/31 12:30:57;;;;;;;;;;;;;;;12.64;52.35;98775.69;4977432;28;7320;-77
2023/12/31 12:33:23;;;;;;;;;;;;;;;12.51;52.42;98786.66;4975272;28;7409;-76
2023/12/31 12:35:49;;;;;;;;;;;;;;;12.40;53.17;98788.22;4979716;28;6768;-77
2023/12/31 12:38:14;;;;;;;;;;;;;;;12.22;53.16;98800.81;4979751;28;7441;-76
2023/12/31 12:40:41;;;;;;;;;;;;;;;12.07;53.80;98785.13;4981924;28;6752;-76
2023/12/31 12:43:07;;;;;;;;;;;;;;;11.95;53.97;98765.22;4978860;28;6780;-77
2023/12/31 12:45:32;;;;;;;;;;;;;;;11.81;53.64;98786.41;4979023;28;6768;-76
2023/12/31 12:48:01;;;;;;;;;;;;;;;11.71;53.99;98787.09;4961754;28;6873;-79
2023/12/31 12:50:29;;;;;;;;;;;;;;;11.59;54.85;98776.59;4915382;28;7078;-79
2023/12/31 12:52:56;;;;;;;;;;;;;;;11.48;54.57;98782.38;4951920;28;7037;-79
2023/12/31 12:55:22;;;;;;;;;;;;;;;11.43;55.01;98778.91;4928870;28;7257;-79